sensor_id;sensor_type;location;lat;lon;timestamp;temperature;humidity
4725;DHT22;2376;53.544;10.226;2023-03-25T00:02:14;12.90;99.90
4725;DHT22;2376;53.544;10.226;2023-03-25T00:04:41;12.80;99.90
4725;DHT22;2376;53.544;10.226;2023-03-25T00:07:09;12.90;99.90
4725;DHT22;2376;53.544;10.226;2023-03-25T00:09:36;12.90;99.90
4725;DHT22;2376;53.544;10.226;2023-03-25T00:12:03;12.90;99.90
4725;DHT22;2376;53.544;10.226;2023-03-25T00:14:30;12.90;99.90
4725;DHT22;2376;53.544;10.226;2023-03-25T00:16:58;12.90;99.90
4725;DHT22;2376;53.544;10.226;2023-03-25T00:19:25;12.80;99.90
4725;DHT22;2376;53.544;10.226;2023-03-25T00:21:52;12.90;99.90
4725;DHT22;2376;53.544;10.226;2023-03-25T00:24:21;12.80;99.90
4725;DHT22;2376;53.544;10.226;2023-03-25T00:26:47;12.80;99.90
4725;DHT22;2376;53.544;10.226;2023-03-25T00:29:15;12.80;99.90
4725;DHT22;2376;53.544;10.226;2023-03-25T00:31:42;12.70;99.90
4725;DHT22;2376;53.544;10.226;2023-03-25T00:34:09;12.80;99.90
4725;DHT22;2376;53.544;10.226;2023-03-25T00:36:39;12.80;99.90
4725;DHT22;2376;53.544;10.226;2023-03-25T00:39:08;12.70;99.90
4725;DHT22;2376;53.544;10.226;2023-03-25T00:41:36;12.70;99.90
4725;DHT22;2376;53.544;10.226;2023-03-25T00:44:06;12.70;99.90
4725;DHT22;2376;53.544;10.226;2023-03-25T00:46:33;12.70;99.90
4725;DHT22;2376;53.544;10.226;2023-03-25T00:49:00;12.70;99.90
4725;DHT22;2376;53.544;10.226;2023-03-25T00:51:28;12.70;99.90
4725;DHT22;2376;53.544;10.226;2023-03-25T00:53:56;12.70;99.90
4725;DHT22;2376;53.544;10.226;2023-03-25T00:56:25;12.70;99.90
4725;DHT22;2376;53.544;10.226;2023-03-25T00:58:53;12.70;99.90
4725;DHT22;2376;53.544;10.226;2023-03-25T01:01:23;12.70;99.90
4725;DHT22;2376;53.544;10.226;2023-03-25T01:03:51;12.70;99.90
4725;DHT22;2376;53.544;10.226;2023-03-25T01:06:23;12.70;99.90
4725;DHT22;2376;53.544;10.226;2023-03-25T01:08:54;12.60;99.90
4725;DHT22;2376;53.544;10.226;2023-03-25T01:11:24;12.70;99.90
4725;DHT22;2376;53.544;10.226;2023-03-25T01:13:53;12.70;99.90
4725;DHT22;2376;53.544;10.226;2023-03-25T01:16:21;12.60;99.90
4725;DHT22;2376;53.544;10.226;2023-03-25T01:18:48;12.60;99.90
4725;DHT22;2376;53.544;10.226;2023-03-25T01:21:14;12.50;99.90
4725;DHT22;2376;53.544;10.226;2023-03-25T01:23:41;12.50;99.90
4725;DHT22;2376;53.544;10.226;2023-03-25T01:26:08;12.50;99.90
4725;DHT22;2376;53.544;10.226;2023-03-25T01:28:37;12.50;99.90
4725;DHT22;2376;53.544;10.226;2023-03-25T01:31:07;12.50;99.90
4725;DHT22;2376;53.544;10.226;2023-03-25T01:33:35;12.50;99.90
4725;DHT22;2376;53.544;10.226;2023-03-25T01:36:02;12.60;99.90
4725;DHT22;2376;53.544;10.226;2023-03-25T01:38:29;12.60;99.90
4725;DHT22;2376;53.544;10.226;2023-03-25T01:40:56;12.60;99.90
4725;DHT22;2376;53.544;10.226;2023-03-25T01:43:23;12.60;99.90
4725;DHT22;2376;53.544;10.226;2023-03-25T01:45:50;12.50;99.90
4725;DHT22;2376;53.544;10.226;2023-03-25T01:48:21;12.50;99.90
4725;DHT22;2376;53.544;10.226;2023-03-25T01:50:53;12.50;99.90
4725;DHT22;2376;53.544;10.226;2023-03-25T01:53:21;12.50;99.90
4725;DHT22;2376;53.544;10.226;2023-03-25T01:55:48;12.40;99.90
4725;DHT22;2376;53.544;10.226;2023-03-25T01:58:18;12.40;99.90
4725;DHT22;2376;53.544;10.226;2023-03-25T02:00:47;12.40;99.90
4725;DHT22;2376;53.544;10.226;2023-03-25T02:03:16;12.50;99.90
4725;DHT22;2376;53.544;10.226;2023-03-25T02:05:50;12.50;99.90
4725;DHT22;2376;53.544;10.226;2023-03-25T02:08:19;12.50;99.90
4725;DHT22;2376;53.544;10.226;2023-03-25T02:10:47;12.50;99.90
4725;DHT22;2376;53.544;10.226;2023-03-25T02:13:15;12.50;99.90
4725;DHT22;2376;53.544;10.226;2023-03-25T02:16:06;12.50;99.90
4725;DHT22;2376;53.544;10.226;2023-03-25T02:18:42;12.50;99.90
4725;DHT22;2376;53.544;10.226;2023-03-25T02:22:04;12.50;99.90
4725;DHT22;2376;53.544;10.226;2023-03-25T02:24:59;12.50;99.90
4725;DHT22;2376;53.544;10.226;2023-03-25T02:27:54;12.50;99.90
4725;DHT22;2376;53.544;10.226;2023-03-25T02:30:51;12.50;99.90
4725;DHT22;2376;53.544;10.226;2023-03-25T02:33:40;12.50;99.90
4725;DHT22;2376;53.544;10.226;2023-03-25T02:36:53;12.50;99.90
4725;DHT22;2376;53.544;10.226;2023-03-25T02:39:31;12.40;99.90
4725;DHT22;2376;53.544;10.226;2023-03-25T02:42:05;12.40;99.90
4725;DHT22;2376;53.544;10.226;2023-03-25T02:44:38;12.50;99.90
4725;DHT22;2376;53.544;10.226;2023-03-25T02:47:09;12.50;99.90
4725;DHT22;2376;53.544;10.226;2023-03-25T02:49:41;12.50;99.90
4725;DHT22;2376;53.544;10.226;2023-03-25T02:52:12;12.50;99.90
4725;DHT22;2376;53.544;10.226;2023-03-25T02:54:43;12.50;99.90
4725;DHT22;2376;53.544;10.226;2023-03-25T02:57:12;12.40;99.90
4725;DHT22;2376;53.544;10.226;2023-03-25T02:59:42;12.50;99.90
4725;DHT22;2376;53.544;10.226;2023-03-25T03:02:10;12.50;99.90
4725;DHT22;2376;53.544;10.226;2023-03-25T03:04:48;12.50;99.90
4725;DHT22;2376;53.544;10.226;2023-03-25T03:07:21;12.50;99.90
4725;DHT22;2376;53.544;10.226;2023-03-25T03:09:54;12.60;99.90
4725;DHT22;2376;53.544;10.226;2023-03-25T03:12:35;12.50;99.90
4725;DHT22;2376;53.544;10.226;2023-03-25T03:15:16;12.50;99.90
4725;DHT22;2376;53.544;10.226;2023-03-25T03:17:54;12.50;99.90
4725;DHT22;2376;53.544;10.226;2023-03-25T03:20:34;12.50;99.90
4725;DHT22;2376;53.544;10.226;2023-03-25T03:23:07;12.50;99.90
4725;DHT22;2376;53.544;10.226;2023-03-25T03:25:44;12.40;99.90
4725;DHT22;2376;53.544;10.226;2023-03-25T03:28:16;12.40;99.90
4725;DHT22;2376;53.544;10.226;2023-03-25T03:30:48;12.40;99.90
4725;DHT22;2376;53.544;10.226;2023-03-25T03:33:22;12.40;99.90
4725;DHT22;2376;53.544;10.226;2023-03-25T03:35:55;12.50;99.90
4725;DHT22;2376;53.544;10.226;2023-03-25T03:38:29;12.40;99.90
4725;DHT22;2376;53.544;10.226;2023-03-25T03:41:03;12.40;99.90
4725;DHT22;2376;53.544;10.226;2023-03-25T03:43:34;12.40;99.90
4725;DHT22;2376;53.544;10.226;2023-03-25T03:46:05;12.40;99.90
4725;DHT22;2376;53.544;10.226;2023-03-25T03:48:38;12.40;99.90
4725;DHT22;2376;53.544;10.226;2023-03-25T03:51:10;12.40;99.90
4725;DHT22;2376;53.544;10.226;2023-03-25T03:53:40;12.40;99.90
4725;DHT22;2376;53.544;10.226;2023-03-25T03:56:12;12.40;99.90
4725;DHT22;2376;53.544;10.226;2023-03-25T03:58:44;12.40;99.90
4725;DHT22;2376;53.544;10.226;2023-03-25T04:01:15;12.40;99.90
4725;DHT22;2376;53.544;10.226;2023-03-25T04:03:57;12.30;99.90
4725;DHT22;2376;53.544;10.226;2023-03-25T04:06:29;12.30;99.90
4725;DHT22;2376;53.544;10.226;2023-03-25T04:09:02;12.30;99.90
4725;DHT22;2376;53.544;10.226;2023-03-25T04:11:38;12.30;99.90
4725;DHT22;2376;53.544;10.226;2023-03-25T04:14:06;12.30;99.90
4725;DHT22;2376;53.544;10.226;2023-03-25T04:16:34;12.30;99.90
4725;DHT22;2376;53.544;10.226;2023-03-25T04:19:02;12.30;99.90
4725;DHT22;2376;53.544;10.226;2023-03-25T04:21:29;12.30;99.90
4725;DHT22;2376;53.544;10.226;2023-03-25T04:23:56;12.30;99.90
4725;DHT22;2376;53.544;10.226;2023-03-25T04:26:26;12.20;99.90
4725;DHT22;2376;53.544;10.226;2023-03-25T04:28:55;12.30;99.90
4725;DHT22;2376;53.544;10.226;2023-03-25T04:31:24;12.30;99.90
4725;DHT22;2376;53.544;10.226;2023-03-25T04:33:56;12.30;99.90
4725;DHT22;2376;53.544;10.226;2023-03-25T04:36:23;12.30;99.90
4725;DHT22;2376;53.544;10.226;2023-03-25T04:38:53;12.30;99.90
4725;DHT22;2376;53.544;10.226;2023-03-25T04:41:20;12.40;99.90
4725;DHT22;2376;53.544;10.226;2023-03-25T04:43:47;12.40;99.90
4725;DHT22;2376;53.544;10.226;2023-03-25T04:46:16;12.40;99.90
4725;DHT22;2376;53.544;10.226;2023-03-25T04:48:44;12.50;99.90
4725;DHT22;2376;53.544;10.226;2023-03-25T04:51:13;12.40;99.90
4725;DHT22;2376;53.544;10.226;2023-03-25T04:53:40;12.40;99.90
4725;DHT22;2376;53.544;10.226;2023-03-25T04:56:11;12.40;99.90
4725;DHT22;2376;53.544;10.226;2023-03-25T04:58:40;12.30;99.90
4725;DHT22;2376;53.544;10.226;2023-03-25T05:01:09;12.30;99.90
4725;DHT22;2376;53.544;10.226;2023-03-25T05:03:42;12.20;99.90
4725;DHT22;2376;53.544;10.226;2023-03-25T05:06:08;12.20;99.90
4725;DHT22;2376;53.544;10.226;2023-03-25T05:08:35;12.20;99.90
4725;DHT22;2376;53.544;10.226;2023-03-25T05:11:02;12.20;99.90
4725;DHT22;2376;53.544;10.226;2023-03-25T05:13:29;12.20;99.90
4725;DHT22;2376;53.544;10.226;2023-03-25T05:15:56;12.20;99.90
4725;DHT22;2376;53.544;10.226;2023-03-25T05:18:23;12.20;99.90
4725;DHT22;2376;53.544;10.226;2023-03-25T05:20:51;12.30;99.90
4725;DHT22;2376;53.544;10.226;2023-03-25T05:23:19;12.30;99.90
4725;DHT22;2376;53.544;10.226;2023-03-25T05:25:47;12.20;99.90
4725;DHT22;2376;53.544;10.226;2023-03-25T05:28:15;12.20;99.90
4725;DHT22;2376;53.544;10.226;2023-03-25T05:30:43;12.20;99.90
4725;DHT22;2376;53.544;10.226;2023-03-25T05:33:12;12.20;99.90
4725;DHT22;2376;53.544;10.226;2023-03-25T05:35:40;12.20;99.90
4725;DHT22;2376;53.544;10.226;2023-03-25T05:38:10;12.20;99.90
4725;DHT22;2376;53.544;10.226;2023-03-25T05:40:38;12.20;99.90
4725;DHT22;2376;53.544;10.226;2023-03-25T05:43:06;12.10;99.90
4725;DHT22;2376;53.544;10.226;2023-03-25T05:45:33;12.20;99.90
4725;DHT22;2376;53.544;10.226;2023-03-25T05:48:01;12.20;99.90
4725;DHT22;2376;53.544;10.226;2023-03-25T05:50:29;12.20;99.90
4725;DHT22;2376;53.544;10.226;2023-03-25T05:52:56;12.20;99.90
4725;DHT22;2376;53.544;10.226;2023-03-25T05:55:26;12.20;99.90
4725;DHT22;2376;53.544;10.226;2023-03-25T05:57:53;12.00;99.90
4725;DHT22;2376;53.544;10.226;2023-03-25T06:00:21;12.00;99.90
4725;DHT22;2376;53.544;10.226;2023-03-25T06:02:48;12.00;99.90
4725;DHT22;2376;53.544;10.226;2023-03-25T06:05:15;11.90;99.90
4725;DHT22;2376;53.544;10.226;2023-03-25T06:07:44;12.00;99.90
4725;DHT22;2376;53.544;10.226;2023-03-25T06:10:12;11.90;99.90
4725;DHT22;2376;53.544;10.226;2023-03-25T06:12:42;12.00;99.90
4725;DHT22;2376;53.544;10.226;2023-03-25T06:15:11;12.00;99.90
4725;DHT22;2376;53.544;10.226;2023-03-25T06:17:38;12.10;99.90
4725;DHT22;2376;53.544;10.226;2023-03-25T06:20:07;12.00;99.90
4725;DHT22;2376;53.544;10.226;2023-03-25T06:22:37;12.10;99.90
4725;DHT22;2376;53.544;10.226;2023-03-25T06:25:05;12.20;99.90
4725;DHT22;2376;53.544;10.226;2023-03-25T06:27:32;12.20;99.90
4725;DHT22;2376;53.544;10.226;2023-03-25T06:30:07;12.30;99.90
4725;DHT22;2376;53.544;10.226;2023-03-25T06:32:34;12.30;99.90
4725;DHT22;2376;53.544;10.226;2023-03-25T06:35:02;12.30;99.90
4725;DHT22;2376;53.544;10.226;2023-03-25T06:37:29;12.20;99.90
4725;DHT22;2376;53.544;10.226;2023-03-25T06:39:56;12.20;99.90
4725;DHT22;2376;53.544;10.226;2023-03-25T06:42:24;12.20;99.90
4725;DHT22;2376;53.544;10.226;2023-03-25T06:44:51;12.20;99.90
4725;DHT22;2376;53.544;10.226;2023-03-25T06:47:19;12.20;99.90
4725;DHT22;2376;53.544;10.226;2023-03-25T06:49:46;12.30;99.90
4725;DHT22;2376;53.544;10.226;2023-03-25T06:52:13;12.30;99.90
4725;DHT22;2376;53.544;10.226;2023-03-25T06:54:41;12.20;99.90
4725;DHT22;2376;53.544;10.226;2023-03-25T06:57:07;12.20;99.90
4725;DHT22;2376;53.544;10.226;2023-03-25T06:59:34;12.20;99.90
4725;DHT22;2376;53.544;10.226;2023-03-25T07:02:01;12.10;99.90
4725;DHT22;2376;53.544;10.226;2023-03-25T07:04:29;12.10;99.90
4725;DHT22;2376;53.544;10.226;2023-03-25T07:06:56;12.10;99.90
4725;DHT22;2376;53.544;10.226;2023-03-25T07:09:23;12.10;99.90
4725;DHT22;2376;53.544;10.226;2023-03-25T07:11:50;12.10;99.90
4725;DHT22;2376;53.544;10.226;2023-03-25T07:14:17;12.10;99.90
4725;DHT22;2376;53.544;10.226;2023-03-25T07:16:44;12.10;99.90
4725;DHT22;2376;53.544;10.226;2023-03-25T07:19:11;12.20;99.90
4725;DHT22;2376;53.544;10.226;2023-03-25T07:21:39;12.20;99.90
4725;DHT22;2376;53.544;10.226;2023-03-25T07:24:06;12.20;99.90
4725;DHT22;2376;53.544;10.226;2023-03-25T07:26:33;12.30;99.90
4725;DHT22;2376;53.544;10.226;2023-03-25T07:29:00;12.30;99.90
4725;DHT22;2376;53.544;10.226;2023-03-25T07:31:28;12.30;99.90
4725;DHT22;2376;53.544;10.226;2023-03-25T07:33:55;12.30;99.90
4725;DHT22;2376;53.544;10.226;2023-03-25T07:36:23;12.30;99.90
4725;DHT22;2376;53.544;10.226;2023-03-25T07:38:52;12.30;99.90
4725;DHT22;2376;53.544;10.226;2023-03-25T07:41:19;12.40;99.90
4725;DHT22;2376;53.544;10.226;2023-03-25T07:43:46;12.40;99.90
4725;DHT22;2376;53.544;10.226;2023-03-25T07:46:13;12.50;99.90
4725;DHT22;2376;53.544;10.226;2023-03-25T07:48:40;12.60;99.90
4725;DHT22;2376;53.544;10.226;2023-03-25T07:51:07;12.50;99.90
4725;DHT22;2376;53.544;10.226;2023-03-25T07:53:34;12.60;99.90
4725;DHT22;2376;53.544;10.226;2023-03-25T07:56:05;12.60;99.90
4725;DHT22;2376;53.544;10.226;2023-03-25T07:58:32;12.60;99.90
4725;DHT22;2376;53.544;10.226;2023-03-25T08:00:59;12.50;99.90
4725;DHT22;2376;53.544;10.226;2023-03-25T08:03:26;12.50;99.90
4725;DHT22;2376;53.544;10.226;2023-03-25T08:05:53;12.50;99.90
4725;DHT22;2376;53.544;10.226;2023-03-25T08:08:20;12.60;99.90
4725;DHT22;2376;53.544;10.226;2023-03-25T08:10:47;12.70;99.90
4725;DHT22;2376;53.544;10.226;2023-03-25T08:13:15;12.80;99.90
4725;DHT22;2376;53.544;10.226;2023-03-25T08:15:42;12.90;99.90
4725;DHT22;2376;53.544;10.226;2023-03-25T08:18:09;12.90;99.90
4725;DHT22;2376;53.544;10.226;2023-03-25T08:20:36;13.00;99.90
4725;DHT22;2376;53.544;10.226;2023-03-25T08:23:03;13.00;99.90
4725;DHT22;2376;53.544;10.226;2023-03-25T08:25:34;13.10;99.90
4725;DHT22;2376;53.544;10.226;2023-03-25T08:28:02;13.10;99.90
4725;DHT22;2376;53.544;10.226;2023-03-25T08:30:30;13.10;99.90
4725;DHT22;2376;53.544;10.226;2023-03-25T08:33:02;13.20;99.90
4725;DHT22;2376;53.544;10.226;2023-03-25T08:35:29;13.20;99.90
4725;DHT22;2376;53.544;10.226;2023-03-25T08:37:56;13.20;99.90
4725;DHT22;2376;53.544;10.226;2023-03-25T08:40:25;13.20;99.90
4725;DHT22;2376;53.544;10.226;2023-03-25T08:42:52;13.20;99.90
4725;DHT22;2376;53.544;10.226;2023-03-25T08:45:19;13.20;99.90
4725;DHT22;2376;53.544;10.226;2023-03-25T08:47:48;13.30;99.90
4725;DHT22;2376;53.544;10.226;2023-03-25T08:50:15;13.40;99.90
4725;DHT22;2376;53.544;10.226;2023-03-25T08:52:41;13.50;99.90
4725;DHT22;2376;53.544;10.226;2023-03-25T08:55:09;13.60;99.90
4725;DHT22;2376;53.544;10.226;2023-03-25T08:57:36;13.70;99.90
4725;DHT22;2376;53.544;10.226;2023-03-25T09:00:03;13.70;99.90
4725;DHT22;2376;53.544;10.226;2023-03-25T09:02:33;13.70;99.90
4725;DHT22;2376;53.544;10.226;2023-03-25T09:05:01;13.70;99.90
4725;DHT22;2376;53.544;10.226;2023-03-25T09:07:28;13.60;99.90
4725;DHT22;2376;53.544;10.226;2023-03-25T09:09:55;13.50;99.90
4725;DHT22;2376;53.544;10.226;2023-03-25T09:12:22;13.40;99.90
4725;DHT22;2376;53.544;10.226;2023-03-25T09:14:49;13.40;99.90
4725;DHT22;2376;53.544;10.226;2023-03-25T09:17:16;13.30;99.90
4725;DHT22;2376;53.544;10.226;2023-03-25T09:19:43;13.20;99.90
4725;DHT22;2376;53.544;10.226;2023-03-25T09:22:11;13.20;99.90
4725;DHT22;2376;53.544;10.226;2023-03-25T09:24:38;13.00;99.90
4725;DHT22;2376;53.544;10.226;2023-03-25T09:27:05;12.90;99.90
4725;DHT22;2376;53.544;10.226;2023-03-25T09:29:32;12.80;99.90
4725;DHT22;2376;53.544;10.226;2023-03-25T09:31:59;12.70;99.90
4725;DHT22;2376;53.544;10.226;2023-03-25T09:34:26;12.70;99.90
4725;DHT22;2376;53.544;10.226;2023-03-25T09:36:54;12.50;99.90
4725;DHT22;2376;53.544;10.226;2023-03-25T09:39:22;12.50;99.90
4725;DHT22;2376;53.544;10.226;2023-03-25T09:42:03;12.40;99.90
4725;DHT22;2376;53.544;10.226;2023-03-25T09:44:36;12.40;99.90
4725;DHT22;2376;53.544;10.226;2023-03-25T09:47:08;12.40;99.90
4725;DHT22;2376;53.544;10.226;2023-03-25T09:49:39;12.40;99.90
4725;DHT22;2376;53.544;10.226;2023-03-25T09:52:14;12.40;99.90
4725;DHT22;2376;53.544;10.226;2023-03-25T09:54:46;12.30;99.90
4725;DHT22;2376;53.544;10.226;2023-03-25T09:57:17;12.30;99.90
4725;DHT22;2376;53.544;10.226;2023-03-25T09:59:48;12.30;99.90
4725;DHT22;2376;53.544;10.226;2023-03-25T10:02:27;12.20;99.90
4725;DHT22;2376;53.544;10.226;2023-03-25T10:05:04;12.20;99.90
4725;DHT22;2376;53.544;10.226;2023-03-25T10:07:47;12.10;99.90
4725;DHT22;2376;53.544;10.226;2023-03-25T10:10:24;12.20;99.90
4725;DHT22;2376;53.544;10.226;2023-03-25T10:13:00;12.20;99.90
4725;DHT22;2376;53.544;10.226;2023-03-25T10:15:33;12.20;99.90
4725;DHT22;2376;53.544;10.226;2023-03-25T10:18:21;12.20;99.90
4725;DHT22;2376;53.544;10.226;2023-03-25T10:20:58;12.40;99.90
4725;DHT22;2376;53.544;10.226;2023-03-25T10:23:33;12.40;99.90
4725;DHT22;2376;53.544;10.226;2023-03-25T10:26:09;12.50;99.90
4725;DHT22;2376;53.544;10.226;2023-03-25T10:28:40;12.50;99.90
4725;DHT22;2376;53.544;10.226;2023-03-25T10:31:14;12.60;99.90
4725;DHT22;2376;53.544;10.226;2023-03-25T10:33:45;12.60;99.90
4725;DHT22;2376;53.544;10.226;2023-03-25T10:36:17;12.70;99.90
4725;DHT22;2376;53.544;10.226;2023-03-25T10:38:49;12.80;99.90
4725;DHT22;2376;53.544;10.226;2023-03-25T10:41:24;12.80;99.90
4725;DHT22;2376;53.544;10.226;2023-03-25T10:43:52;12.70;99.90
4725;DHT22;2376;53.544;10.226;2023-03-25T10:46:25;12.80;99.90
4725;DHT22;2376;53.544;10.226;2023-03-25T10:48:53;12.80;99.90
4725;DHT22;2376;53.544;10.226;2023-03-25T10:51:22;12.80;99.90
4725;DHT22;2376;53.544;10.226;2023-03-25T10:53:51;12.80;99.90
4725;DHT22;2376;53.544;10.226;2023-03-25T10:56:23;12.90;99.90
4725;DHT22;2376;53.544;10.226;2023-03-25T10:58:52;13.00;99.90
4725;DHT22;2376;53.544;10.226;2023-03-25T11:01:21;13.00;99.90
4725;DHT22;2376;53.544;10.226;2023-03-25T11:03:54;13.20;99.90
4725;DHT22;2376;53.544;10.226;2023-03-25T11:06:24;13.40;99.90
4725;DHT22;2376;53.544;10.226;2023-03-25T11:09:14;13.70;99.90
4725;DHT22;2376;53.544;10.226;2023-03-25T11:11:44;13.80;99.90
4725;DHT22;2376;53.544;10.226;2023-03-25T11:14:12;13.70;99.90
4725;DHT22;2376;53.544;10.226;2023-03-25T11:16:44;13.60;99.90
4725;DHT22;2376;53.544;10.226;2023-03-25T11:19:17;13.50;99.90
4725;DHT22;2376;53.544;10.226;2023-03-25T11:21:47;13.50;99.90
4725;DHT22;2376;53.544;10.226;2023-03-25T11:24:17;13.50;99.90
4725;DHT22;2376;53.544;10.226;2023-03-25T11:26:48;13.50;99.90
4725;DHT22;2376;53.544;10.226;2023-03-25T11:29:18;13.40;99.90
4725;DHT22;2376;53.544;10.226;2023-03-25T11:31:55;13.40;99.90
4725;DHT22;2376;53.544;10.226;2023-03-25T11:34:23;13.20;99.90
4725;DHT22;2376;53.544;10.226;2023-03-25T11:36:53;12.90;99.90
4725;DHT22;2376;53.544;10.226;2023-03-25T11:39:26;12.80;99.90
4725;DHT22;2376;53.544;10.226;2023-03-25T11:41:56;12.70;99.90
4725;DHT22;2376;53.544;10.226;2023-03-25T11:44:26;12.70;99.90
4725;DHT22;2376;53.544;10.226;2023-03-25T11:46:56;12.60;99.90
4725;DHT22;2376;53.544;10.226;2023-03-25T11:49:24;12.60;99.90
4725;DHT22;2376;53.544;10.226;2023-03-25T11:51:56;12.60;99.90
4725;DHT22;2376;53.544;10.226;2023-03-25T11:54:25;12.70;99.90
4725;DHT22;2376;53.544;10.226;2023-03-25T11:56:53;12.70;99.90
4725;DHT22;2376;53.544;10.226;2023-03-25T11:59:24;12.70;99.90
4725;DHT22;2376;53.544;10.226;2023-03-25T12:02:00;12.70;99.90
4725;DHT22;2376;53.544;10.226;2023-03-25T12:04:28;12.70;99.90
4725;DHT22;2376;53.544;10.226;2023-03-25T12:06:58;12.70;99.90
4725;DHT22;2376;53.544;10.226;2023-03-25T12:09:26;12.80;99.90
4725;DHT22;2376;53.544;10.226;2023-03-25T12:12:09;12.80;99.90
4725;DHT22;2376;53.544;10.226;2023-03-25T12:14:49;12.90;99.90
4725;DHT22;2376;53.544;10.226;2023-03-25T12:17:25;13.00;99.90
4725;DHT22;2376;53.544;10.226;2023-03-25T12:20:02;13.10;99.90
4725;DHT22;2376;53.544;10.226;2023-03-25T12:22:47;13.20;99.90
4725;DHT22;2376;53.544;10.226;2023-03-25T12:25:23;13.30;99.90
4725;DHT22;2376;53.544;10.226;2023-03-25T12:28:02;13.30;99.90
4725;DHT22;2376;53.544;10.226;2023-03-25T12:30:47;13.30;99.90
4725;DHT22;2376;53.544;10.226;2023-03-25T12:33:29;13.30;99.90
4725;DHT22;2376;53.544;10.226;2023-03-25T12:36:13;13.30;99.90
4725;DHT22;2376;53.544;10.226;2023-03-25T12:38:51;13.40;99.90
4725;DHT22;2376;53.544;10.226;2023-03-25T12:41:21;13.50;99.90
4725;DHT22;2376;53.544;10.226;2023-03-25T12:44:00;13.50;99.90
4725;DHT22;2376;53.544;10.226;2023-03-25T12:46:56;13.60;99.90
4725;DHT22;2376;53.544;10.226;2023-03-25T12:49:36;13.70;99.90
4725;DHT22;2376;53.544;10.226;2023-03-25T12:52:07;13.60;99.90
4725;DHT22;2376;53.544;10.226;2023-03-25T12:54:48;13.60;99.90
4725;DHT22;2376;53.544;10.226;2023-03-25T12:57:31;13.70;99.90
4725;DHT22;2376;53.544;10.226;2023-03-25T13:00:27;13.90;99.90
4725;DHT22;2376;53.544;10.226;2023-03-25T13:03:22;14.00;99.90
4725;DHT22;2376;53.544;10.226;2023-03-25T13:05:57;14.10;99.90
4725;DHT22;2376;53.544;10.226;2023-03-25T13:08:30;14.00;99.90
4725;DHT22;2376;53.544;10.226;2023-03-25T13:11:01;13.90;99.90
4725;DHT22;2376;53.544;10.226;2023-03-25T13:13:33;13.80;99.90
4725;DHT22;2376;53.544;10.226;2023-03-25T13:16:05;13.80;99.90
4725;DHT22;2376;53.544;10.226;2023-03-25T13:18:38;13.80;99.90
4725;DHT22;2376;53.544;10.226;2023-03-25T13:21:09;13.90;99.90
4725;DHT22;2376;53.544;10.226;2023-03-25T13:23:37;13.90;99.90
4725;DHT22;2376;53.544;10.226;2023-03-25T13:26:08;13.90;99.90
4725;DHT22;2376;53.544;10.226;2023-03-25T13:28:39;13.90;99.90
4725;DHT22;2376;53.544;10.226;2023-03-25T13:31:11;13.90;99.90
4725;DHT22;2376;53.544;10.226;2023-03-25T13:33:43;13.90;99.90
4725;DHT22;2376;53.544;10.226;2023-03-25T13:36:16;13.80;99.90
4725;DHT22;2376;53.544;10.226;2023-03-25T13:38:48;13.90;99.90
4725;DHT22;2376;53.544;10.226;2023-03-25T13:41:18;13.90;99.90
4725;DHT22;2376;53.544;10.226;2023-03-25T13:43:53;13.90;99.90
4725;DHT22;2376;53.544;10.226;2023-03-25T13:46:25;14.00;99.90
4725;DHT22;2376;53.544;10.226;2023-03-25T13:48:57;14.00;99.90
4725;DHT22;2376;53.544;10.226;2023-03-25T13:51:25;14.00;99.90
4725;DHT22;2376;53.544;10.226;2023-03-25T13:53:55;13.90;99.90
4725;DHT22;2376;53.544;10.226;2023-03-25T13:59:54;13.90;99.90
4725;DHT22;2376;53.544;10.226;2023-03-25T14:02:33;13.80;99.90
4725;DHT22;2376;53.544;10.226;2023-03-25T14:08:14;13.60;99.90
4725;DHT22;2376;53.544;10.226;2023-03-25T14:10:51;13.60;99.90
4725;DHT22;2376;53.544;10.226;2023-03-25T14:13:22;13.60;99.90
4725;DHT22;2376;53.544;10.226;2023-03-25T14:15:56;13.60;99.90
4725;DHT22;2376;53.544;10.226;2023-03-25T14:18:26;13.60;99.90
4725;DHT22;2376;53.544;10.226;2023-03-25T14:20:56;13.40;99.90
4725;DHT22;2376;53.544;10.226;2023-03-25T14:23:29;13.40;99.90
4725;DHT22;2376;53.544;10.226;2023-03-25T14:25:58;13.50;99.90
4725;DHT22;2376;53.544;10.226;2023-03-25T14:28:34;13.40;99.90
4725;DHT22;2376;53.544;10.226;2023-03-25T14:31:14;13.40;99.90
4725;DHT22;2376;53.544;10.226;2023-03-25T14:37:21;13.60;99.90
4725;DHT22;2376;53.544;10.226;2023-03-25T14:39:52;13.60;99.90
4725;DHT22;2376;53.544;10.226;2023-03-25T14:42:25;13.60;99.90
4725;DHT22;2376;53.544;10.226;2023-03-25T14:48:23;13.40;99.90
4725;DHT22;2376;53.544;10.226;2023-03-25T14:53:36;12.70;99.90
4725;DHT22;2376;53.544;10.226;2023-03-25T14:56:07;12.70;99.90
4725;DHT22;2376;53.544;10.226;2023-03-25T14:58:41;12.70;99.90
4725;DHT22;2376;53.544;10.226;2023-03-25T15:01:12;12.70;99.90
4725;DHT22;2376;53.544;10.226;2023-03-25T15:03:42;12.80;99.90
4725;DHT22;2376;53.544;10.226;2023-03-25T15:06:14;12.80;99.90
4725;DHT22;2376;53.544;10.226;2023-03-25T15:08:49;12.80;99.90
4725;DHT22;2376;53.544;10.226;2023-03-25T15:11:26;12.90;99.90
4725;DHT22;2376;53.544;10.226;2023-03-25T15:13:56;12.80;99.90
4725;DHT22;2376;53.544;10.226;2023-03-25T15:16:33;12.80;99.90
4725;DHT22;2376;53.544;10.226;2023-03-25T15:19:04;12.80;99.90
4725;DHT22;2376;53.544;10.226;2023-03-25T15:22:03;12.90;99.90
4725;DHT22;2376;53.544;10.226;2023-03-25T15:24:24;12.90;99.90
4725;DHT22;2376;53.544;10.226;2023-03-25T15:26:54;12.80;99.90
4725;DHT22;2376;53.544;10.226;2023-03-25T15:29:44;12.90;99.90
4725;DHT22;2376;53.544;10.226;2023-03-25T15:32:30;12.80;99.90
4725;DHT22;2376;53.544;10.226;2023-03-25T15:35:34;12.80;99.90
4725;DHT22;2376;53.544;10.226;2023-03-25T15:38:25;12.80;99.90
4725;DHT22;2376;53.544;10.226;2023-03-25T15:41:15;12.70;99.90
4725;DHT22;2376;53.544;10.226;2023-03-25T15:43:58;12.80;99.90
4725;DHT22;2376;53.544;10.226;2023-03-25T15:55:26;12.90;99.90
4725;DHT22;2376;53.544;10.226;2023-03-25T15:57:58;12.90;99.90
4725;DHT22;2376;53.544;10.226;2023-03-25T16:00:31;12.90;99.90
4725;DHT22;2376;53.544;10.226;2023-03-25T16:03:05;12.90;99.90
4725;DHT22;2376;53.544;10.226;2023-03-25T16:05:33;13.00;99.90
4725;DHT22;2376;53.544;10.226;2023-03-25T16:08:07;13.00;99.90
4725;DHT22;2376;53.544;10.226;2023-03-25T16:10:34;12.90;99.90
4725;DHT22;2376;53.544;10.226;2023-03-25T16:13:03;12.90;99.90
4725;DHT22;2376;53.544;10.226;2023-03-25T16:15:34;12.90;99.90
4725;DHT22;2376;53.544;10.226;2023-03-25T16:18:03;12.90;99.90
4725;DHT22;2376;53.544;10.226;2023-03-25T16:20:32;12.90;99.90
4725;DHT22;2376;53.544;10.226;2023-03-25T16:23:00;12.90;99.90
4725;DHT22;2376;53.544;10.226;2023-03-25T16:25:31;12.90;99.90
4725;DHT22;2376;53.544;10.226;2023-03-25T16:28:01;12.90;99.90
4725;DHT22;2376;53.544;10.226;2023-03-25T16:30:35;12.80;99.90
4725;DHT22;2376;53.544;10.226;2023-03-25T16:33:14;12.80;99.90
4725;DHT22;2376;53.544;10.226;2023-03-25T16:35:43;12.80;99.90
4725;DHT22;2376;53.544;10.226;2023-03-25T16:38:13;12.80;99.90